createdAt,value
2019-02-25T00:00:27.301Z,68.84
2019-02-25T00:01:27.299Z,68.98
2019-02-25T00:02:27.296Z,69.49
2019-02-25T00:03:27.314Z,69.56
2019-02-25T00:04:27.262Z,69.60
2019-02-25T00:05:27.249Z,69.60
2019-02-25T00:06:27.250Z,69.90
2019-02-25T00:07:27.490Z,70.46
2019-02-25T00:08:27.238Z,70.46
2019-02-25T00:09:27.197Z,70.73
2019-02-25T00:10:27.228Z,70.97
2019-02-25T00:11:27.188Z,70.87
2019-02-25T00:12:27.185Z,70.46
2019-02-25T00:13:27.195Z,70.87
2019-02-25T00:14:27.184Z,71.08
2019-02-25T00:15:27.136Z,70.97
2019-02-25T00:16:27.129Z,70.46
2019-02-25T00:17:27.171Z,70.04
2019-02-25T00:18:27.108Z,70.97
2019-02-25T00:19:27.122Z,70.87
2019-02-25T00:20:27.090Z,70.67
2019-02-25T00:21:27.073Z,71.28
2019-02-25T00:22:27.070Z,70.97
2019-02-25T00:23:27.069Z,70.97
2019-02-25T00:24:27.041Z,71.49
2019-02-25T00:25:27.053Z,71.63
2019-02-25T00:26:27.057Z,71.91
2019-02-25T00:27:27.011Z,71.84
2019-02-25T00:28:27.009Z,71.73
2019-02-25T00:29:27.016Z,72.53
2019-02-25T00:30:27.046Z,71.70
2019-02-25T00:31:26.986Z,71.59
2019-02-25T00:32:26.956Z,71.28
2019-02-25T00:33:26.953Z,71.39
2019-02-25T00:34:26.952Z,71.49
2019-02-25T00:35:26.922Z,71.49
2019-02-25T00:36:26.963Z,72.36
2019-02-25T00:37:26.918Z,72.11
2019-02-25T00:38:26.931Z,71.94
2019-02-25T00:39:26.892Z,72.15
2019-02-25T00:40:27.699Z,71.91
2019-02-25T00:41:26.869Z,72.11
2019-02-25T00:42:26.870Z,71.91
2019-02-25T00:43:26.852Z,72.15
2019-02-25T00:44:26.834Z,71.94
2019-02-25T00:45:26.828Z,71.42
2019-02-25T00:46:26.820Z,71.53
2019-02-25T00:47:26.820Z,71.63
2019-02-25T00:48:26.804Z,71.77
2019-02-25T00:49:26.783Z,72.15
2019-02-25T00:50:26.773Z,72.36
2019-02-25T00:51:26.757Z,72.15
2019-02-25T00:52:26.786Z,72.25
2019-02-25T00:53:26.757Z,72.46
2019-02-25T00:54:26.735Z,72.36
2019-02-25T00:55:26.734Z,72.56
2019-02-25T00:56:26.707Z,72.25
2019-02-25T00:57:26.701Z,72.46
2019-02-25T00:58:26.741Z,72.28
2019-02-25T00:59:26.696Z,72.56
2019-02-25T01:00:26.669Z,72.77
2019-02-25T01:01:26.677Z,72.67
2019-02-25T01:02:26.641Z,72.67
2019-02-25T01:03:26.649Z,72.77
2019-02-25T01:04:26.637Z,72.91
2019-02-25T01:05:26.628Z,72.77
2019-02-25T01:06:26.607Z,72.60
2019-02-25T01:07:26.597Z,73.18
2019-02-25T01:08:26.620Z,73.08
2019-02-25T01:09:26.635Z,73.18
2019-02-25T01:10:26.560Z,73.43
2019-02-25T01:11:26.573Z,73.01
2019-02-25T01:12:26.566Z,73.74
2019-02-25T01:13:26.540Z,73.01
2019-02-25T01:14:26.564Z,73.22
2019-02-25T01:15:26.529Z,73.32
2019-02-25T01:16:26.495Z,73.74
2019-02-25T01:17:26.503Z,73.74
2019-02-25T01:18:26.490Z,73.77
2019-02-25T01:19:26.465Z,73.15
2019-02-25T01:20:26.488Z,73.43
2019-02-25T01:21:26.457Z,72.94
2019-02-25T01:22:26.439Z,72.94
2019-02-25T01:23:26.461Z,72.84
2019-02-25T01:24:26.437Z,72.94
2019-02-25T01:25:26.410Z,72.70
2019-02-25T01:26:26.431Z,72.53
2019-02-25T01:27:26.379Z,71.59
2019-02-25T01:28:26.394Z,71.39
2019-02-25T01:29:26.363Z,72.11
2019-02-25T01:30:26.358Z,71.39
2019-02-25T01:31:26.380Z,71.91
2019-02-25T01:32:26.355Z,72.18
2019-02-25T01:33:26.335Z,71.39
2019-02-25T01:34:26.306Z,71.18
2019-02-25T01:35:26.302Z,71.39
2019-02-25T01:36:26.313Z,71.49
2019-02-25T01:37:26.326Z,71.73
2019-02-25T01:38:26.271Z,72.42
2019-02-25T01:39:26.304Z,72.32
2019-02-25T01:40:26.263Z,72.63
2019-02-25T01:41:26.267Z,72.42
2019-02-25T01:42:26.245Z,72.01
2019-02-25T01:43:26.237Z,72.74
2019-02-25T01:44:26.201Z,72.63
2019-02-25T01:45:26.191Z,72.42
2019-02-25T01:46:26.181Z,71.91
2019-02-25T01:47:26.193Z,72.11
2019-02-25T01:48:26.194Z,71.80
2019-02-25T01:49:26.154Z,71.70
2019-02-25T01:50:26.149Z,71.59
2019-02-25T01:51:26.162Z,71.28
2019-02-25T01:52:26.147Z,71.28
2019-02-25T01:53:26.137Z,71.18
2019-02-25T01:54:26.125Z,69.83
2019-02-25T01:55:26.094Z,69.00
2019-02-25T01:56:26.075Z,68.38
2019-02-25T01:57:26.070Z,68.48
2019-02-25T01:58:26.082Z,68.90
2019-02-25T01:59:26.079Z,68.90
2019-02-25T02:00:26.054Z,69.31
2019-02-25T02:01:26.059Z,69.07
2019-02-25T02:02:26.039Z,68.38
2019-02-25T02:03:26.058Z,67.76
2019-02-25T02:04:26.061Z,67.41
2019-02-25T02:05:25.993Z,67.82
2019-02-25T02:06:25.994Z,66.89
2019-02-25T02:07:26.047Z,66.17
2019-02-25T02:08:25.953Z,66.38
2019-02-25T02:09:26.018Z,65.20
2019-02-25T02:10:25.937Z,64.69
2019-02-25T02:11:25.938Z,64.69
2019-02-25T02:12:25.918Z,65.20
2019-02-25T02:13:25.907Z,64.27
2019-02-25T02:14:25.911Z,65.20
2019-02-25T02:15:25.919Z,65.31
2019-02-25T02:16:25.875Z,65.20
2019-02-25T02:17:25.888Z,65.72
2019-02-25T02:18:25.851Z,65.52
2019-02-25T02:19:25.870Z,65.41
2019-02-25T02:20:25.829Z,66.03
2019-02-25T02:21:25.842Z,65.93
2019-02-25T02:22:25.825Z,65.93
2019-02-25T02:23:25.829Z,66.03
2019-02-25T02:24:25.825Z,65.72
2019-02-25T02:25:25.770Z,65.93
2019-02-25T02:26:25.820Z,66.14
2019-02-25T02:27:25.759Z,66.35
2019-02-25T02:28:25.759Z,66.06
2019-02-25T02:29:25.737Z,65.96
2019-02-25T02:30:25.740Z,66.24
2019-02-25T02:31:25.721Z,66.06
2019-02-25T02:32:25.733Z,65.72
2019-02-25T02:33:25.708Z,66.47
2019-02-25T02:34:25.699Z,66.89
2019-02-25T02:35:25.691Z,67.20
2019-02-25T02:36:25.679Z,67.30
2019-02-25T02:37:25.653Z,67.51
2019-02-25T02:38:25.712Z,67.82
2019-02-25T02:39:25.721Z,67.41
2019-02-25T02:40:25.678Z,68.55
2019-02-25T02:41:25.651Z,67.61
2019-02-25T02:42:25.598Z,68.34
2019-02-25T02:43:25.589Z,68.03
2019-02-25T02:44:25.621Z,68.44
2019-02-25T02:45:25.563Z,68.65
2019-02-25T02:46:25.561Z,68.55
2019-02-25T02:47:25.548Z,68.55
2019-02-25T02:48:25.552Z,68.96
2019-02-25T02:49:25.558Z,69.10
2019-02-25T02:50:25.532Z,69.52
2019-02-25T02:51:25.517Z,69.10
2019-02-25T02:52:25.498Z,69.42
2019-02-25T02:53:25.511Z,69.83
2019-02-25T02:54:25.496Z,69.93
2019-02-25T02:55:25.503Z,69.93
2019-02-25T02:56:25.468Z,69.62
2019-02-25T02:57:25.442Z,70.35
2019-02-25T02:58:25.441Z,70.87
2019-02-25T02:59:25.450Z,70.25
2019-02-25T03:00:25.419Z,70.35
2019-02-25T03:01:25.403Z,70.69
2019-02-25T03:02:25.416Z,70.79
2019-02-25T03:03:25.388Z,70.38
2019-02-25T03:04:25.401Z,70.07
2019-02-25T03:05:25.396Z,70.07
2019-02-25T03:06:25.355Z,70.07
2019-02-25T03:07:25.333Z,70.04
2019-02-25T03:08:25.331Z,69.96
2019-02-25T03:09:25.335Z,70.35
2019-02-25T03:10:25.321Z,70.59
2019-02-25T03:11:25.334Z,70.28
2019-02-25T03:12:25.283Z,70.38
2019-02-25T03:13:25.308Z,70.90
2019-02-25T03:14:25.261Z,70.07
2019-02-25T03:15:25.259Z,69.96
2019-02-25T03:16:25.274Z,70.69
2019-02-25T03:17:25.227Z,71.00
2019-02-25T03:18:25.218Z,70.69
2019-02-25T03:19:25.237Z,70.69
2019-02-25T03:20:25.224Z,70.79
2019-02-25T03:21:25.205Z,70.38
2019-02-25T03:22:25.221Z,70.51
2019-02-25T03:23:25.185Z,70.59
2019-02-25T03:24:25.154Z,70.41
2019-02-25T03:25:25.157Z,70.38
2019-02-25T03:26:25.151Z,70.59
2019-02-25T03:27:25.181Z,71.14
2019-02-25T03:28:25.109Z,70.72
2019-02-25T03:29:25.155Z,70.93
2019-02-25T03:30:25.106Z,70.51
2019-02-25T03:31:25.099Z,70.51
2019-02-25T03:32:25.113Z,70.31
2019-02-25T03:33:25.093Z,70.54
2019-02-25T03:34:25.079Z,70.23
2019-02-25T03:35:25.058Z,70.44
2019-02-25T03:36:25.051Z,70.65
2019-02-25T03:37:25.022Z,70.75
2019-02-25T03:38:25.020Z,70.86
2019-02-25T03:39:25.012Z,70.44
2019-02-25T03:40:24.996Z,70.75
2019-02-25T03:41:24.985Z,71.17
2019-02-25T03:42:24.978Z,71.38
2019-02-25T03:43:24.995Z,70.97
2019-02-25T03:44:24.955Z,71.38
2019-02-25T03:45:24.962Z,71.07
2019-02-25T03:46:24.933Z,71.17
2019-02-25T03:47:24.914Z,72.21
2019-02-25T03:48:24.927Z,71.59
2019-02-25T03:49:24.899Z,71.59
2019-02-25T03:50:24.891Z,71.62
2019-02-25T03:51:24.887Z,71.28
2019-02-25T03:52:24.875Z,71.48
2019-02-25T03:53:24.877Z,71.48
2019-02-25T03:54:24.844Z,71.28
2019-02-25T03:55:24.875Z,71.62
2019-02-25T03:56:24.836Z,71.69
2019-02-25T03:57:24.827Z,71.48
2019-02-25T03:58:24.839Z,71.93
2019-02-25T03:59:24.809Z,71.59
2019-02-25T04:00:24.798Z,71.72
2019-02-25T04:01:24.762Z,71.83
2019-02-25T04:02:24.765Z,72.45
2019-02-25T04:03:24.764Z,72.45
2019-02-25T04:04:24.787Z,72.24
2019-02-25T04:05:24.726Z,72.76
2019-02-25T04:06:24.721Z,72.66
2019-02-25T04:07:24.705Z,72.55
2019-02-25T04:08:24.702Z,72.34
2019-02-25T04:09:24.715Z,72.34
2019-02-25T04:10:24.681Z,73.11
2019-02-25T04:11:24.659Z,73.07
2019-02-25T04:12:24.663Z,72.66
2019-02-25T04:13:24.646Z,72.66
2019-02-25T04:14:24.651Z,73.21
2019-02-25T04:15:24.658Z,73.21
2019-02-25T04:16:24.608Z,73.63
2019-02-25T04:17:24.607Z,73.39
2019-02-25T04:18:24.588Z,73.94
2019-02-25T04:19:24.639Z,73.94
2019-02-25T04:20:24.575Z,73.42
2019-02-25T04:21:24.585Z,74.15
2019-02-25T04:22:24.550Z,74.04
2019-02-25T04:23:24.527Z,73.83
2019-02-25T04:24:24.539Z,73.83
2019-02-25T04:25:24.517Z,73.94
2019-02-25T04:26:24.548Z,74.04
2019-02-25T04:27:24.500Z,74.04
2019-02-25T04:28:24.494Z,74.25
2019-02-25T04:29:24.464Z,74.15
2019-02-25T04:30:24.464Z,74.25
2019-02-25T04:31:24.460Z,74.35
2019-02-25T04:32:24.467Z,73.94
2019-02-25T04:33:24.437Z,74.25
2019-02-25T04:34:24.473Z,74.04
2019-02-25T04:35:24.421Z,73.94
2019-02-25T04:36:24.393Z,73.94
2019-02-25T04:37:24.395Z,73.94
2019-02-25T04:38:24.406Z,73.94
2019-02-25T04:39:24.360Z,74.04
2019-02-25T04:40:24.354Z,74.08
2019-02-25T04:41:24.334Z,74.08
2019-02-25T04:42:24.334Z,75.12
2019-02-25T04:43:24.345Z,75.01
2019-02-25T04:44:24.312Z,74.88
2019-02-25T04:45:24.309Z,75.01
2019-02-25T04:46:24.290Z,75.01
2019-02-25T04:47:24.284Z,74.91
2019-02-25T04:48:24.270Z,73.87
2019-02-25T04:49:24.342Z,73.94
2019-02-25T04:50:24.237Z,74.15
2019-02-25T04:51:24.244Z,73.94
2019-02-25T04:52:24.223Z,73.42
2019-02-25T04:53:24.213Z,73.42
2019-02-25T04:54:24.240Z,72.80
2019-02-25T04:55:24.204Z,72.97
2019-02-25T04:56:25.386Z,72.66
2019-02-25T04:57:24.177Z,72.45
2019-02-25T04:58:24.173Z,72.24
2019-02-25T04:59:24.139Z,72.55
2019-02-25T05:00:24.147Z,71.62
2019-02-25T05:01:24.160Z,71.72
2019-02-25T05:02:24.123Z,71.62
2019-02-25T05:03:24.103Z,71.00
2019-02-25T05:04:24.097Z,70.58
2019-02-25T05:05:24.271Z,70.23
2019-02-25T05:06:24.085Z,70.44
2019-02-25T05:07:24.084Z,70.68
2019-02-25T05:08:24.045Z,70.68
2019-02-25T05:09:24.094Z,70.68
2019-02-25T05:10:24.044Z,71.51
2019-02-25T05:11:25.681Z,71.51
2019-02-25T05:12:24.019Z,71.31
2019-02-25T05:13:24.002Z,71.31
2019-02-25T05:14:23.989Z,70.79
2019-02-25T05:15:23.984Z,70.89
2019-02-25T05:16:23.967Z,70.48
2019-02-25T05:17:24.053Z,69.96
2019-02-25T05:18:23.961Z,69.96
2019-02-25T05:19:23.965Z,70.06
2019-02-25T05:20:23.930Z,69.30
2019-02-25T05:21:23.913Z,69.64
2019-02-25T05:22:23.909Z,69.74
2019-02-25T05:23:23.910Z,69.82
2019-02-25T05:24:23.909Z,70.03
2019-02-25T05:25:23.875Z,69.30
2019-02-25T05:26:23.874Z,69.30
2019-02-25T05:27:23.852Z,68.68
2019-02-25T05:28:23.925Z,67.85
2019-02-25T05:29:23.838Z,68.05
2019-02-25T05:30:23.842Z,68.37
2019-02-25T05:31:23.810Z,67.74
2019-02-25T05:32:23.807Z,67.74
2019-02-25T05:33:23.817Z,67.43
2019-02-25T05:34:23.766Z,67.46
2019-02-25T05:35:23.759Z,68.05
2019-02-25T05:36:23.763Z,67.88
2019-02-25T05:37:23.783Z,68.40
2019-02-25T05:38:23.726Z,68.81
2019-02-25T05:39:23.744Z,69.33
2019-02-25T05:40:23.716Z,69.09
2019-02-25T05:41:23.712Z,68.57
2019-02-25T05:42:23.696Z,68.50
2019-02-25T05:43:23.706Z,68.78
2019-02-25T05:44:23.662Z,68.68
2019-02-25T05:45:23.710Z,68.29
2019-02-25T05:46:23.647Z,68.78
2019-02-25T05:47:23.643Z,68.99
2019-02-25T05:48:23.648Z,69.02
2019-02-25T05:49:23.620Z,68.78
2019-02-25T05:50:23.621Z,69.02
2019-02-25T05:51:23.589Z,69.12
2019-02-25T05:52:23.582Z,68.81
2019-02-25T05:53:23.576Z,69.02
2019-02-25T05:54:23.563Z,69.57
2019-02-25T05:55:23.568Z,69.99
2019-02-25T05:56:23.555Z,69.99
2019-02-25T05:57:23.519Z,70.09
2019-02-25T05:58:23.520Z,70.37
2019-02-25T05:59:23.520Z,70.72
2019-02-25T06:00:23.504Z,70.20
2019-02-25T06:01:23.504Z,70.61
2019-02-25T06:02:23.477Z,70.72
2019-02-25T06:03:23.488Z,70.40
2019-02-25T06:04:23.461Z,71.27
2019-02-25T06:05:23.474Z,71.06
2019-02-25T06:06:23.441Z,71.79
2019-02-25T06:07:23.459Z,71.89
2019-02-25T06:08:23.459Z,72.28
2019-02-25T06:09:23.397Z,72.00
2019-02-25T06:10:23.423Z,72.52
2019-02-25T06:11:23.380Z,72.52
2019-02-25T06:12:23.372Z,72.62
2019-02-25T06:13:23.384Z,73.35
2019-02-25T06:14:23.352Z,73.14
2019-02-25T06:15:23.335Z,73.25
2019-02-25T06:16:23.393Z,73.46
2019-02-25T06:17:23.309Z,73.59
2019-02-25T06:18:23.316Z,73.66
2019-02-25T06:19:23.286Z,74.01
2019-02-25T06:20:23.301Z,73.90
2019-02-25T06:21:23.361Z,73.90
2019-02-25T06:22:23.273Z,74.01
2019-02-25T06:23:23.254Z,74.01
2019-02-25T06:24:23.291Z,73.69
2019-02-25T06:25:23.267Z,74.43
2019-02-25T06:26:23.217Z,74.21
2019-02-25T06:27:30.447Z,74.21
2019-02-25T06:28:24.196Z,74.01
2019-02-25T06:29:23.190Z,74.32
2019-02-25T06:30:23.209Z,74.11
2019-02-25T06:31:23.160Z,74.32
2019-02-25T06:32:23.202Z,74.35
2019-02-25T06:33:23.139Z,74.87
2019-02-25T06:34:23.173Z,75.15
2019-02-25T06:35:23.127Z,75.50
2019-02-25T06:36:23.113Z,75.57
2019-02-25T06:37:23.128Z,75.05
2019-02-25T06:38:23.104Z,75.50
2019-02-25T06:39:23.081Z,75.50
2019-02-25T06:40:23.063Z,75.71
2019-02-25T06:41:23.053Z,75.50
2019-02-25T06:42:23.062Z,76.12
2019-02-25T06:43:23.085Z,76.12
2019-02-25T06:44:23.019Z,76.23
2019-02-25T06:45:23.019Z,76.23
2019-02-25T06:46:22.992Z,76.33
2019-02-25T06:47:23.001Z,76.20
2019-02-25T06:48:22.997Z,75.57
2019-02-25T06:49:22.990Z,76.20
2019-02-25T06:50:22.974Z,75.67
2019-02-25T06:51:22.938Z,76.20
2019-02-25T06:52:22.998Z,76.30
2019-02-25T06:53:22.937Z,76.09
2019-02-25T06:54:22.948Z,75.78
2019-02-25T06:55:22.933Z,76.30
2019-02-25T06:56:22.926Z,76.40
2019-02-25T06:57:22.892Z,76.51
2019-02-25T06:58:23.211Z,75.88
2019-02-25T06:59:22.865Z,76.40
2019-02-25T07:00:22.869Z,76.20
2019-02-25T07:01:23.071Z,76.16
2019-02-25T07:02:22.825Z,76.06
2019-02-25T07:03:22.811Z,75.67
2019-02-25T07:04:22.799Z,75.12
2019-02-25T07:05:22.799Z,75.43
2019-02-25T07:06:22.815Z,74.98
2019-02-25T07:07:22.789Z,74.98
2019-02-25T07:08:22.823Z,73.73
2019-02-25T07:09:22.825Z,74.04
2019-02-25T07:10:22.740Z,74.25
2019-02-25T07:11:22.755Z,73.63
2019-02-25T07:12:22.764Z,73.21
2019-02-25T07:13:22.726Z,73.00
2019-02-25T07:14:22.726Z,73.07
2019-02-25T07:15:22.694Z,73.11
2019-02-25T07:16:22.667Z,72.97
2019-02-25T07:17:22.838Z,72.90
2019-02-25T07:18:22.697Z,73.39
2019-02-25T07:19:22.659Z,73.42
2019-02-25T07:20:22.629Z,73.42
2019-02-25T07:21:22.633Z,73.28
2019-02-25T07:22:22.622Z,73.49
2019-02-25T07:23:22.629Z,73.32
2019-02-25T07:24:22.605Z,73.94
2019-02-25T07:25:22.608Z,73.32
2019-02-25T07:26:22.566Z,73.80
2019-02-25T07:27:22.556Z,73.94
2019-02-25T07:28:22.565Z,73.94
2019-02-25T07:29:22.586Z,73.52
2019-02-25T07:30:22.532Z,73.39
2019-02-25T07:31:22.531Z,73.32
2019-02-25T07:32:22.502Z,72.66
2019-02-25T07:33:22.485Z,72.24
2019-02-25T07:34:22.492Z,71.80
2019-02-25T07:35:22.495Z,71.69
2019-02-25T07:36:22.477Z,71.69
2019-02-25T07:37:22.453Z,71.59
2019-02-25T07:38:22.437Z,71.38
2019-02-25T07:39:22.437Z,70.54
2019-02-25T07:40:22.427Z,70.54
2019-02-25T07:41:22.467Z,70.97
2019-02-25T07:42:22.422Z,69.92
2019-02-25T07:43:22.414Z,70.13
2019-02-25T07:44:22.381Z,70.03
2019-02-25T07:45:22.466Z,70.34
2019-02-25T07:46:22.351Z,70.41
2019-02-25T07:47:22.689Z,69.92
2019-02-25T07:48:22.345Z,70.54
2019-02-25T07:49:22.340Z,71.17
2019-02-25T07:50:22.311Z,70.54
2019-02-25T07:51:22.302Z,70.23
2019-02-25T07:52:22.422Z,70.34
2019-02-25T07:53:22.289Z,70.44
2019-02-25T07:54:22.291Z,70.86
2019-02-25T07:55:22.283Z,70.31
2019-02-25T07:56:22.241Z,70.31
2019-02-25T07:57:22.239Z,70.41
2019-02-25T07:58:22.253Z,70.62
2019-02-25T07:59:22.285Z,71.34
2019-02-25T08:00:22.209Z,71.17
2019-02-25T08:01:22.195Z,71.14
2019-02-25T08:02:22.351Z,71.14
2019-02-25T08:03:22.225Z,71.38
2019-02-25T08:04:22.212Z,71.14
2019-02-25T08:05:22.154Z,71.45
2019-02-25T08:06:22.160Z,71.45
2019-02-25T08:07:22.148Z,71.03
2019-02-25T08:08:22.120Z,71.14
2019-02-25T08:09:22.134Z,71.24
2019-02-25T08:10:22.156Z,70.93
2019-02-25T08:11:22.122Z,71.14
2019-02-25T08:12:22.093Z,71.03
2019-02-25T08:13:22.148Z,71.24
2019-02-25T08:14:22.079Z,70.83
2019-02-25T08:15:22.107Z,71.34
2019-02-25T08:16:22.036Z,71.55
2019-02-25T08:17:22.020Z,71.45
2019-02-25T08:18:22.037Z,71.34
2019-02-25T08:19:22.010Z,71.34
2019-02-25T08:20:22.020Z,71.14
2019-02-25T08:21:22.012Z,70.93
2019-02-25T08:22:22.926Z,70.31
2019-02-25T08:23:21.977Z,70.41
2019-02-25T08:24:30.352Z,70.62
2019-02-25T08:25:22.972Z,71.21
2019-02-25T08:26:21.939Z,70.07
2019-02-25T08:27:21.932Z,69.55
2019-02-25T08:28:21.937Z,69.55
2019-02-25T08:29:21.913Z,69.76
2019-02-25T08:30:21.900Z,69.24
2019-02-25T08:31:21.906Z,69.52
2019-02-25T08:32:21.868Z,68.90
2019-02-25T08:33:21.878Z,69.00
2019-02-25T08:34:21.855Z,69.00
2019-02-25T08:35:21.839Z,68.90
2019-02-25T08:36:21.851Z,68.79
2019-02-25T08:37:21.849Z,68.79
2019-02-25T08:38:21.804Z,68.79
2019-02-25T08:39:21.799Z,69.31
2019-02-25T08:40:21.780Z,69.00
2019-02-25T08:41:21.773Z,69.24
2019-02-25T08:42:21.779Z,69.62
2019-02-25T08:43:21.749Z,69.00
2019-02-25T08:44:21.742Z,68.27
2019-02-25T08:45:22.881Z,68.59
2019-02-25T08:46:21.716Z,68.90
2019-02-25T08:47:21.737Z,68.48
2019-02-25T08:48:21.714Z,67.41
2019-02-25T08:49:21.698Z,68.03
2019-02-25T08:50:21.682Z,67.93
2019-02-25T08:51:21.667Z,68.03
2019-02-25T08:52:21.763Z,68.41
2019-02-25T08:53:21.667Z,67.10
2019-02-25T08:54:21.659Z,66.44
2019-02-25T08:55:21.628Z,66.14
2019-02-25T08:56:21.613Z,65.59
2019-02-25T08:57:21.627Z,65.28
2019-02-25T08:58:21.597Z,65.38
2019-02-25T08:59:21.595Z,65.04
2019-02-25T09:00:21.613Z,64.21
2019-02-25T09:01:21.572Z,64.42
2019-02-25T09:02:21.552Z,64.31
2019-02-25T09:03:21.567Z,65.35
2019-02-25T09:04:21.562Z,65.59
2019-02-25T09:05:21.540Z,65.56
2019-02-25T09:06:21.516Z,66.28
2019-02-25T09:07:21.544Z,65.59
2019-02-25T09:08:21.511Z,66.52
2019-02-25T09:09:21.503Z,66.00
2019-02-25T09:10:21.472Z,66.52
2019-02-25T09:11:21.454Z,66.93
2019-02-25T09:12:21.451Z,67.14
2019-02-25T09:13:21.459Z,67.63
2019-02-25T09:14:21.466Z,67.45
2019-02-25T09:15:21.438Z,67.63
2019-02-25T09:16:21.411Z,68.04
2019-02-25T09:17:21.416Z,67.83
2019-02-25T09:18:21.401Z,67.42
2019-02-25T09:19:21.379Z,67.70
2019-02-25T09:20:21.387Z,68.04
2019-02-25T09:21:21.356Z,67.21
2019-02-25T09:22:21.349Z,67.29
2019-02-25T09:23:21.331Z,66.97
2019-02-25T09:24:21.332Z,66.87
2019-02-25T09:25:21.331Z,66.35
2019-02-25T09:26:21.313Z,67.49
2019-02-25T09:27:21.306Z,67.39
2019-02-25T09:28:21.362Z,67.49
2019-02-25T09:29:21.317Z,67.46
2019-02-25T09:30:21.296Z,67.57
2019-02-25T09:31:21.256Z,66.94
2019-02-25T09:32:21.265Z,66.84
2019-02-25T09:33:21.231Z,66.19
2019-02-25T09:34:21.212Z,66.09
2019-02-25T09:35:21.201Z,65.78
2019-02-25T09:36:21.237Z,65.54
2019-02-25T09:37:21.177Z,65.23
2019-02-25T09:38:21.180Z,65.75
2019-02-25T09:39:21.163Z,65.26
2019-02-25T09:40:21.152Z,65.67
2019-02-25T09:41:29.660Z,65.02
2019-02-25T09:42:22.132Z,64.51
2019-02-25T09:43:21.126Z,64.30
2019-02-25T09:44:21.111Z,63.85
2019-02-25T09:45:21.123Z,63.13
2019-02-25T09:46:21.159Z,63.37
2019-02-25T09:47:21.122Z,62.41
2019-02-25T09:48:21.065Z,61.99
2019-02-25T09:49:21.057Z,63.13
2019-02-25T09:50:21.077Z,62.72
2019-02-25T09:51:21.045Z,63.10
2019-02-25T09:52:21.052Z,62.82
2019-02-25T09:53:21.021Z,61.89
2019-02-25T09:54:21.010Z,62.51
2019-02-25T09:55:21.019Z,62.93
2019-02-25T09:56:20.986Z,61.79
2019-02-25T09:57:21.038Z,61.89
2019-02-25T09:58:21.000Z,62.10
2019-02-25T09:59:20.950Z,61.69
2019-02-25T10:00:20.937Z,61.24
2019-02-25T10:01:20.928Z,60.73
2019-02-25T10:02:20.910Z,60.93
2019-02-25T10:03:20.930Z,61.22
2019-02-25T10:04:20.912Z,60.18
2019-02-25T10:05:20.880Z,60.11
2019-02-25T10:06:20.886Z,59.25
2019-02-25T10:07:20.865Z,58.33
2019-02-25T10:08:20.870Z,59.25
2019-02-25T10:09:29.506Z,57.89
2019-02-25T10:10:21.835Z,56.85
2019-02-25T10:11:20.824Z,56.54
2019-02-25T10:12:20.822Z,57.57
2019-02-25T10:13:20.818Z,57.89
2019-02-25T10:14:20.841Z,57.55
2019-02-25T10:15:20.802Z,57.76
2019-02-25T10:16:20.768Z,57.24
2019-02-25T10:17:23.808Z,58.06
2019-02-25T10:18:20.759Z,56.52
2019-02-25T10:19:20.731Z,57.14
2019-02-25T10:20:20.753Z,57.76
2019-02-25T10:21:20.710Z,56.73
2019-02-25T10:22:20.709Z,56.52
2019-02-25T10:23:20.733Z,55.98
2019-02-25T10:24:20.680Z,56.00
2019-02-25T10:25:20.711Z,55.77
2019-02-25T10:26:20.656Z,55.57
2019-02-25T10:27:20.677Z,54.74
2019-02-25T10:28:20.638Z,57.11
2019-02-25T10:29:20.643Z,56.18
2019-02-25T10:30:20.608Z,56.77
2019-02-25T10:31:20.625Z,54.71
2019-02-25T10:32:20.624Z,55.23
2019-02-25T10:33:20.577Z,55.13
2019-02-25T10:34:20.566Z,53.14
2019-02-25T10:35:20.555Z,52.63
2019-02-25T10:36:20.569Z,52.22
2019-02-25T10:37:20.553Z,52.66
2019-02-25T10:38:21.602Z,52.22
2019-02-25T10:39:20.517Z,52.01
2019-02-25T10:40:24.427Z,50.96
2019-02-25T10:41:21.670Z,50.85
2019-02-25T10:42:20.541Z,49.60
2019-02-25T10:43:20.499Z,50.93
2019-02-25T10:44:20.458Z,52.27
2019-02-25T10:45:20.452Z,52.06
2019-02-25T10:46:20.450Z,52.06
2019-02-25T10:47:21.452Z,53.09
2019-02-25T10:48:21.603Z,52.29
2019-02-25T10:49:20.430Z,54.64
2019-02-25T10:50:20.390Z,54.56
2019-02-25T10:51:20.381Z,53.33
2019-02-25T10:52:20.373Z,52.50
2019-02-25T10:53:22.053Z,52.27
2019-02-25T10:54:21.264Z,50.29
2019-02-25T10:55:20.353Z,48.75
2019-02-25T10:56:21.669Z,48.93
2019-02-25T10:57:21.991Z,48.71
2019-02-25T10:58:20.342Z,47.67
2019-02-25T10:59:20.323Z,48.17
2019-02-25T11:00:20.294Z,47.76
2019-02-25T11:01:22.255Z,47.45
2019-02-25T11:02:20.269Z,49.38
2019-02-25T11:03:21.774Z,49.69
2019-02-25T11:04:21.788Z,48.76
2019-02-25T11:05:21.172Z,49.27
2019-02-25T11:06:20.237Z,50.40
2019-02-25T11:07:20.241Z,47.42
2019-02-25T11:08:20.259Z,47.55
2019-02-25T11:09:20.200Z,47.66
2019-02-25T11:10:20.767Z,47.02
2019-02-25T11:11:21.047Z,46.81
2019-02-25T11:12:21.571Z,45.58
2019-02-25T11:13:20.175Z,48.76
2019-02-25T11:14:20.146Z,49.27
2019-02-25T11:15:20.133Z,50.38
2019-02-25T11:16:20.428Z,50.71
2019-02-25T11:17:22.024Z,50.90
2019-02-25T11:18:21.938Z,49.77
2019-02-25T11:19:20.075Z,49.23
2019-02-25T11:20:20.074Z,49.97
2019-02-25T11:21:20.052Z,49.85
2019-02-25T11:22:20.052Z,46.97
2019-02-25T11:23:21.583Z,44.31
2019-02-25T11:24:21.123Z,44.20
2019-02-25T11:25:21.496Z,43.90
2019-02-25T11:26:20.075Z,43.26
2019-02-25T11:27:20.027Z,43.98
2019-02-25T11:28:25.128Z,44.90
2019-02-25T11:29:21.010Z,43.57
2019-02-25T11:30:21.577Z,42.03
2019-02-25T11:31:22.854Z,40.39
2019-02-25T11:32:21.558Z,40.37
2019-02-25T11:33:22.467Z,41.72
2019-02-25T11:34:19.939Z,42.11
2019-02-25T11:35:19.933Z,40.06
2019-02-25T11:36:21.934Z,37.38
2019-02-25T11:37:21.826Z,36.79
2019-02-25T11:38:19.869Z,38.73
2019-02-25T11:39:19.861Z,38.82
2019-02-25T11:40:19.877Z,39.74
2019-02-25T11:41:19.860Z,40.05
2019-02-25T11:42:20.653Z,42.30
2019-02-25T11:43:21.623Z,39.53
2019-02-25T11:44:21.175Z,39.11
2019-02-25T11:45:19.807Z,38.70
2019-02-25T11:46:19.826Z,38.08
2019-02-25T11:47:19.783Z,38.27
2019-02-25T11:48:19.794Z,37.96
2019-02-25T11:49:19.750Z,37.14
2019-02-25T11:50:19.754Z,36.41
2019-02-25T11:51:19.732Z,35.80
2019-02-25T11:52:19.759Z,34.76
2019-02-25T11:53:19.761Z,35.88
2019-02-25T11:54:19.801Z,35.47
2019-02-25T11:55:21.821Z,35.58
2019-02-25T11:56:19.673Z,35.97
2019-02-25T11:57:19.669Z,36.47
2019-02-25T11:58:19.672Z,36.88
2019-02-25T11:59:19.639Z,34.44
2019-02-25T12:00:19.638Z,35.56
2019-02-25T12:01:19.622Z,36.05
2019-02-25T12:02:25.693Z,35.64
2019-02-25T12:03:20.632Z,36.66
2019-02-25T12:04:19.604Z,37.28
2019-02-25T12:05:19.571Z,36.46
2019-02-25T12:06:19.628Z,37.89
2019-02-25T12:07:19.559Z,37.57
2019-02-25T12:08:19.545Z,37.67
2019-02-25T12:09:20.182Z,37.24
2019-02-25T12:10:19.581Z,37.36
2019-02-25T12:11:19.553Z,37.87
2019-02-25T12:12:19.620Z,38.37
2019-02-25T12:13:19.492Z,38.37
2019-02-25T12:14:19.526Z,37.57
2019-02-25T12:15:19.517Z,37.85
2019-02-25T12:16:19.473Z,37.36
2019-02-25T12:17:19.437Z,37.35
2019-02-25T12:18:19.485Z,38.16
2019-02-25T12:19:19.415Z,37.45
2019-02-25T12:20:19.435Z,37.45
2019-02-25T12:21:19.411Z,36.73
2019-02-25T12:22:19.388Z,37.75
2019-02-25T12:23:19.378Z,38.26
2019-02-25T12:24:19.370Z,38.06
2019-02-25T12:25:19.370Z,37.53
2019-02-25T12:26:19.499Z,37.63
2019-02-25T12:27:19.353Z,37.33
2019-02-25T12:28:19.335Z,37.53
2019-02-25T12:29:19.316Z,37.92
2019-02-25T12:30:19.350Z,37.01
2019-02-25T12:31:19.303Z,37.72
2019-02-25T12:32:19.292Z,37.72
2019-02-25T12:33:19.273Z,38.21
2019-02-25T12:34:19.268Z,37.60
2019-02-25T12:35:19.298Z,38.31
2019-02-25T12:36:19.236Z,38.42
2019-02-25T12:37:19.234Z,40.25
2019-02-25T12:38:19.218Z,37.99
2019-02-25T12:39:19.228Z,38.01
2019-02-25T12:40:19.193Z,38.11
2019-02-25T12:41:19.211Z,37.38
2019-02-25T12:42:19.203Z,37.58
2019-02-25T12:43:19.162Z,37.38
2019-02-25T12:44:19.157Z,37.07
2019-02-25T12:45:19.181Z,36.77
2019-02-25T12:46:19.122Z,37.79
2019-02-25T12:47:19.232Z,36.65
2019-02-25T12:48:19.110Z,37.27
2019-02-25T12:49:19.113Z,36.65
2019-02-25T12:50:19.132Z,36.65
2019-02-25T12:51:19.097Z,35.63
2019-02-25T12:52:19.065Z,36.44